Plan A — 6YSO8 — position and weather

sailwx.info

Track history (hours):
 
Tides and Currents Weather Stations Pressure Air Temp Water Temp Dewpoint Dewpoint Depression Visibility Wind Speed Wind Dir Waves Ship Positions

Plan A

Last reported at 2018-Jul-31 15:09 UTC. Time now 2018-Aug-14 07:03 UTC.
Position N 41°57' W 069°57'.
Warning: this ship's position is 13 days out of date.

Length 40 m; draft 2.1 m.

Type: Pleasure craft. MMSI: 339464000.

Date/timePositionNaut miles runAvg speedWind from/ knotsBaromVisibWave heightAir tempDewpointWater temp
2018-Jul-31 15:09N 41°57' W 069°57'415.0
2018-Jul-31 14:53N 42°01' W 070°00'614.9
2018-Jul-31 14:30N 42°05' W 070°06'6 7.5
2018-Jul-31 13:40N 42°01' W 070°13'212.3
2018-Jul-31 13:30N 42°01' W 070°10'11 0.7
2018-Jul-30 22:15N 42°09' W 070°20'1 2.2
2018-Jul-30 21:56N 42°09' W 070°20'1 2.3
2018-Jul-30 21:29N 42°10' W 070°21'613.4
2018-Jul-30 21:00N 42°14' W 070°28'713.9
2018-Jul-30 20:31N 42°17' W 070°36'714.3
2018-Jul-30 20:00N 42°21' W 070°45'713.5
2018-Jul-30 19:30N 42°23' W 070°53'611.4
2018-Jul-30 19:00N 42°20' W 071°00'2 4.6
2018-Jul-30 18:30N 42°22' W 071°03'0 0.0
2018-Jul-30 17:58N 42°22' W 071°03'0 0.0
2018-Jul-30 17:31N 42°22' W 071°03'0 0.0
2018-Jul-30 16:57N 42°22' W 071°03'0 0.0
2018-Jul-30 16:27N 42°22' W 071°03'0 0.0
2018-Jul-30 15:58N 42°22' W 071°03'0 0.0
2018-Jul-30 15:27N 42°22' W 071°03'0 0.0
2018-Jul-30 14:58N 42°22' W 071°03'0 0.0
2018-Jul-30 14:30N 42°22' W 071°03'0 0.0
2018-Jul-30 13:58N 42°22' W 071°03'0 0.0
2018-Jul-30 13:28N 42°22' W 071°03'0 0.0
2018-Jul-30 12:58N 42°22' W 071°03'0 0.0
2018-Jul-30 12:28N 42°22' W 071°03'0 0.0
2018-Jul-30 12:00N 42°22' W 071°03'0 0.0
2018-Jul-30 11:31N 42°22' W 071°03'0 0.0
2018-Jul-30 10:58N 42°22' W 071°03'0 0.0
2018-Jul-30 10:27N 42°22' W 071°03'0 0.0
2018-Jul-30 10:00N 42°22' W 071°03'0 0.0
2018-Jul-30 09:30N 42°22' W 071°03'0 0.0
2018-Jul-30 09:00N 42°22' W 071°03'0 0.0
2018-Jul-30 08:28N 42°22' W 071°03'0 0.0
2018-Jul-30 08:00N 42°22' W 071°03'0 0.0
2018-Jul-30 07:30N 42°22' W 071°03'0 0.0
2018-Jul-30 06:58N 42°22' W 071°03'0 0.0
2018-Jul-30 06:30N 42°22' W 071°03'0 0.0
2018-Jul-30 06:00N 42°22' W 071°03'0 0.0
2018-Jul-30 05:30N 42°22' W 071°03'0 0.0
2018-Jul-30 05:00N 42°22' W 071°03'0 0.0
2018-Jul-30 04:28N 42°22' W 071°03'0 0.0
2018-Jul-30 03:57N 42°22' W 071°03'0 0.0
2018-Jul-30 03:30N 42°22' W 071°03'0 0.0
2018-Jul-30 02:58N 42°22' W 071°03'0 0.0
2018-Jul-30 02:30N 42°22' W 071°03'0 0.0
2018-Jul-30 02:00N 42°22' W 071°03'0 0.0
2018-Jul-30 01:28N 42°22' W 071°03'0 0.0
2018-Jul-30 00:57N 42°22' W 071°03'0 0.0
2018-Jul-30 00:31N 42°22' W 071°03'0 0.0
2018-Jul-29 23:58N 42°22' W 071°03'0 0.0
2018-Jul-29 23:28N 42°22' W 071°03'0 0.0
2018-Jul-29 22:57N 42°22' W 071°03'0 0.0
2018-Jul-29 22:27N 42°22' W 071°03'0 0.0
2018-Jul-29 21:58N 42°22' W 071°03'0 0.0
2018-Jul-29 21:28N 42°22' W 071°03'2 4.7
2018-Jul-29 21:00N 42°20' W 071°00'4 7.2
2018-Jul-29 20:30N 42°21' W 070°56'611.5
2018-Jul-29 20:00N 42°23' W 070°48'713.5
2018-Jul-29 19:30N 42°20' W 070°40'713.6
2018-Jul-29 19:00N 42°16' W 070°33'96 1.9
2018-Jul-27 17:34N 41°14' W 072°12'214.9
2018-Jul-27 17:27N 41°14' W 072°15'511.7
2018-Jul-27 17:00N 41°17' W 072°21'4 7.6
2018-Jul-27 16:27N 41°21' W 072°23'2 1.4
2018-Jul-27 15:10N 41°22' W 072°22'1 7.7
2018-Jul-27 14:59N 41°21' W 072°23'0 0.0
2018-Jul-27 02:34N 41°21' W 072°23'2 6.2
2018-Jul-27 02:18N 41°20' W 072°21'2 5.8
2018-Jul-27 02:00N 41°18' W 072°21'2 4.3
2018-Jul-27 01:30N 41°16' W 072°20'5 9.0
2018-Jul-27 01:00N 41°12' W 072°21'713.8
2018-Jul-27 00:29N 41°09' W 072°30'714.6
2018-Jul-26 23:59N 41°08' W 072°39'6313.7
2018-Jul-26 19:23N 40°46' W 073°57'3 8.7
2018-Jul-26 19:01N 40°43' W 073°59'2 3.6
2018-Jul-26 18:30N 40°43' W 074°01'0 0.1
2018-Jul-26 18:01N 40°43' W 074°01'0 0.0
2018-Jul-26 17:31N 40°43' W 074°01'0 0.0
2018-Jul-26 17:01N 40°43' W 074°01'0 0.0
2018-Jul-26 16:30N 40°43' W 074°01'0 0.1
2018-Jul-26 16:01N 40°43' W 074°01'0 0.1
2018-Jul-26 15:31N 40°43' W 074°01'0 0.0
2018-Jul-26 15:00N 40°43' W 074°01'0 0.0
2018-Jul-26 14:31N 40°43' W 074°01'0 0.0
2018-Jul-26 14:01N 40°43' W 074°01'0 0.0
2018-Jul-26 13:30N 40°43' W 074°01'0 0.0
2018-Jul-26 13:01N 40°43' W 074°01'0 0.0
2018-Jul-26 12:31N 40°43' W 074°01'0 0.0
2018-Jul-26 12:01N 40°43' W 074°01'0 0.0
2018-Jul-26 11:31N 40°43' W 074°01'0 0.0
2018-Jul-26 11:00N 40°43' W 074°01'0 0.0
2018-Jul-26 10:31N 40°43' W 074°01'0 0.0
2018-Jul-26 10:00N 40°43' W 074°01'0 0.0
2018-Jul-26 09:31N 40°43' W 074°01'0 0.1
2018-Jul-26 09:00N 40°43' W 074°01'0 0.1
2018-Jul-26 08:31N 40°43' W 074°01'0 0.0
2018-Jul-26 08:00N 40°43' W 074°01'0 0.0
2018-Jul-26 07:31N 40°43' W 074°01'0 0.1
2018-Jul-26 07:01N 40°43' W 074°01'0 0.1
2018-Jul-26 06:30N 40°43' W 074°01'0 0.0
2018-Jul-26 06:00N 40°43' W 074°01'0 0.0
2018-Jul-26 05:31N 40°43' W 074°01'0 0.0
2018-Jul-26 05:01N 40°43' W 074°01'0 0.0
2018-Jul-26 04:31N 40°43' W 074°01'0 0.0
2018-Jul-26 04:01N 40°43' W 074°01'0 0.0
2018-Jul-26 03:31N 40°43' W 074°01'0 0.0
2018-Jul-26 03:01N 40°43' W 074°01'0 0.0
2018-Jul-26 02:31N 40°43' W 074°01'0 0.0
2018-Jul-26 02:01N 40°43' W 074°01'0 0.0
2018-Jul-26 01:31N 40°43' W 074°01'0 0.0
2018-Jul-26 01:01N 40°43' W 074°01'0 0.0
2018-Jul-26 00:31N 40°43' W 074°01'0 0.0
2018-Jul-26 00:01N 40°43' W 074°01'0 0.0
2018-Jul-25 23:30N 40°43' W 074°01'0 0.0
2018-Jul-25 23:01N 40°43' W 074°01'0 0.0
2018-Jul-25 22:30N 40°43' W 074°01'0 0.0
2018-Jul-25 22:01N 40°43' W 074°01'0 0.1
2018-Jul-25 21:31N 40°43' W 074°01'0 0.1
2018-Jul-25 21:01N 40°43' W 074°01'0 0.0
2018-Jul-25 20:31N 40°43' W 074°01'0 0.0
2018-Jul-25 20:01N 40°43' W 074°01'0 0.0
2018-Jul-25 19:31N 40°43' W 074°01'0 0.0
2018-Jul-25 19:00N 40°43' W 074°01'0 0.0
2018-Jul-25 18:30N 40°43' W 074°01'0 0.0
2018-Jul-25 18:00N 40°43' W 074°01'0 0.0
2018-Jul-25 17:31N 40°43' W 074°01'0 0.0
2018-Jul-25 17:01N 40°43' W 074°01'0 0.0
2018-Jul-25 16:31N 40°43' W 074°01'0 0.0
2018-Jul-25 16:01N 40°43' W 074°01'0 0.0
2018-Jul-25 15:31N 40°43' W 074°01'0 0.0
2018-Jul-25 15:01N 40°43' W 074°01'0 0.0
2018-Jul-25 14:30N 40°43' W 074°01'0 0.0
2018-Jul-25 14:01N 40°43' W 074°01'0 0.0
2018-Jul-25 13:31N 40°43' W 074°01'0 0.0
2018-Jul-25 13:01N 40°43' W 074°01'0 0.0
2018-Jul-25 12:31N 40°43' W 074°01'0 0.0
2018-Jul-25 12:01N 40°43' W 074°01'0 0.0
2018-Jul-25 11:30N 40°43' W 074°01'0 0.0
2018-Jul-25 11:01N 40°43' W 074°01'0 0.0
2018-Jul-25 10:31N 40°43' W 074°01'0 0.0
2018-Jul-25 10:00N 40°43' W 074°01'0 0.0
2018-Jul-25 09:30N 40°43' W 074°01'0 0.0
2018-Jul-25 09:01N 40°43' W 074°01'0 0.0
2018-Jul-25 08:31N 40°43' W 074°01'0 0.0
2018-Jul-25 08:01N 40°43' W 074°01'0 0.0
2018-Jul-25 07:31N 40°43' W 074°01'0 0.0
2018-Jul-25 07:01N 40°43' W 074°01'0 0.1
2018-Jul-25 06:31N 40°43' W 074°01'0 0.1
2018-Jul-25 06:00N 40°43' W 074°01'0 0.1
2018-Jul-25 05:31N 40°43' W 074°01'0 0.0
2018-Jul-25 05:01N 40°43' W 074°01'0 0.0
2018-Jul-25 04:30N 40°43' W 074°01'0 0.0
2018-Jul-25 04:01N 40°43' W 074°01'0 0.0
2018-Jul-25 03:31N 40°43' W 074°01'0 0.0
2018-Jul-25 03:01N 40°43' W 074°01'0 0.0
2018-Jul-25 02:31N 40°43' W 074°01'0 0.0
2018-Jul-25 01:58N 40°43' W 074°01'0 0.0
2018-Jul-25 01:31N 40°43' W 074°01'0 0.0
2018-Jul-25 01:01N 40°43' W 074°01'0 0.0
2018-Jul-25 00:31N 40°43' W 074°01'0 0.0
2018-Jul-25 00:01N 40°43' W 074°01'0 0.0
2018-Jul-24 23:31N 40°43' W 074°01'0 0.0
2018-Jul-24 23:01N 40°43' W 074°01'0 0.0
2018-Jul-24 22:30N 40°43' W 074°01'0 0.0
2018-Jul-24 22:00N 40°43' W 074°01'0 0.2
2018-Jul-24 21:30N 40°43' W 074°01'0 0.2
2018-Jul-24 21:01N 40°43' W 074°01'0 0.0
2018-Jul-24 20:30N 40°43' W 074°01'0 0.0
2018-Jul-24 20:00N 40°43' W 074°01'0 0.0
2018-Jul-24 19:30N 40°43' W 074°01'0 0.0
2018-Jul-24 19:00N 40°43' W 074°01'0 0.0
2018-Jul-24 18:31N 40°43' W 074°01'0 0.0
2018-Jul-24 18:01N 40°43' W 074°01'0 0.0
2018-Jul-24 17:30N 40°43' W 074°01'0 0.0
2018-Jul-24 17:00N 40°43' W 074°01'0 0.0
2018-Jul-24 16:31N 40°43' W 074°01'0 0.0
2018-Jul-24 16:01N 40°43' W 074°01'0 0.0
2018-Jul-24 15:31N 40°43' W 074°01'0 0.0
2018-Jul-24 14:31N 40°43' W 074°01'0 0.0
2018-Jul-24 14:00N 40°43' W 074°01'0 0.0
2018-Jul-24 13:31N 40°43' W 074°01'0 0.0
2018-Jul-24 13:01N 40°43' W 074°01'0 0.0
2018-Jul-24 12:29N 40°43' W 074°01'0 0.0
2018-Jul-24 12:00N 40°43' W 074°01'0 0.0
2018-Jul-24 11:31N 40°43' W 074°01'0 0.0
2018-Jul-24 11:00N 40°43' W 074°01'0 0.0
2018-Jul-24 10:31N 40°43' W 074°01'0 0.0
2018-Jul-24 10:00N 40°43' W 074°01'0 0.0
2018-Jul-24 09:31N 40°43' W 074°01'0 0.1
2018-Jul-24 09:01N 40°43' W 074°01'0 0.1
2018-Jul-24 08:31N 40°43' W 074°01'0 0.0
2018-Jul-24 08:00N 40°43' W 074°01'0 0.0
2018-Jul-24 07:31N 40°43' W 074°01'0 0.0
2018-Jul-24 07:01N 40°43' W 074°01'0 0.0
2018-Jul-24 06:30N 40°43' W 074°01'0 0.0
2018-Jul-24 06:01N 40°43' W 074°01'0 0.0
2018-Jul-24 05:31N 40°43' W 074°01'0 0.0
2018-Jul-24 05:00N 40°43' W 074°01'0 0.0
2018-Jul-24 04:30N 40°43' W 074°01'0 0.0
2018-Jul-24 04:00N 40°43' W 074°01'0 0.1
2018-Jul-24 03:30N 40°43' W 074°01'0 0.1
2018-Jul-24 03:01N 40°43' W 074°01'0 0.0
2018-Jul-24 02:31N 40°43' W 074°01'0 0.0
2018-Jul-24 02:01N 40°43' W 074°01'0 0.0
2018-Jul-24 01:31N 40°43' W 074°01'0 0.0
2018-Jul-24 01:01N 40°43' W 074°01'0 0.0
2018-Jul-24 00:30N 40°43' W 074°01'0 0.0
2018-Jul-24 00:00N 40°43' W 074°01'0 0.0
2018-Jul-23 23:30N 40°43' W 074°01'0 0.0
2018-Jul-23 23:00N 40°43' W 074°01'0 0.0
2018-Jul-23 22:31N 40°43' W 074°01'0 0.0
2018-Jul-23 22:00N 40°43' W 074°01'0 0.0
2018-Jul-23 21:31N 40°43' W 074°01'0 0.0
2018-Jul-23 21:01N 40°43' W 074°01'0 0.0
2018-Jul-23 20:31N 40°43' W 074°01'0 0.0
2018-Jul-23 19:30N 40°43' W 074°01'0 0.0
2018-Jul-23 19:01N 40°43' W 074°01'0 0.0
2018-Jul-23 18:30N 40°43' W 074°01'0 0.0
2018-Jul-23 18:00N 40°43' W 074°01'0 0.0
2018-Jul-23 17:30N 40°43' W 074°01'0 0.0
2018-Jul-23 17:00N 40°43' W 074°01'0 0.0
2018-Jul-23 16:31N 40°43' W 074°01'0 0.1
2018-Jul-23 16:01N 40°43' W 074°01'0 0.1
2018-Jul-23 15:31N 40°43' W 074°01'0 0.0
2018-Jul-23 15:01N 40°43' W 074°01'0 0.0
2018-Jul-23 14:31N 40°43' W 074°01'0 0.0
2018-Jul-23 14:01N 40°43' W 074°01'0 0.0
2018-Jul-23 13:31N 40°43' W 074°01'0 0.0
2018-Jul-23 13:00N 40°43' W 074°01'0 0.0
2018-Jul-23 12:31N 40°43' W 074°01'0 0.0
2018-Jul-23 12:01N 40°43' W 074°01'0 0.0
2018-Jul-23 11:31N 40°43' W 074°01'0 0.0
2018-Jul-23 11:01N 40°43' W 074°01'0 0.0
2018-Jul-23 10:31N 40°43' W 074°01'0 0.0
2018-Jul-23 10:01N 40°43' W 074°01'0 0.3
2018-Jul-23 09:31N 40°43' W 074°01'0 0.3
2018-Jul-23 09:01N 40°43' W 074°01'0 0.0
2018-Jul-23 08:31N 40°43' W 074°01'0 0.0
2018-Jul-23 08:01N 40°43' W 074°01'0 0.1
2018-Jul-23 07:31N 40°43' W 074°01'0 0.0
2018-Jul-23 07:00N 40°43' W 074°01'0 0.0
2018-Jul-23 06:31N 40°43' W 074°01'0 0.0
2018-Jul-23 06:01N 40°43' W 074°01'0 0.0
2018-Jul-23 05:31N 40°43' W 074°01'0 0.0
2018-Jul-23 05:01N 40°43' W 074°01'0 0.0
2018-Jul-23 04:30N 40°43' W 074°01'0 0.1
2018-Jul-23 04:00N 40°43' W 074°01'0 0.0
2018-Jul-23 03:31N 40°43' W 074°01'0 0.1
2018-Jul-23 03:01N 40°43' W 074°01'0 0.0
2018-Jul-23 02:31N 40°43' W 074°01'0 0.0
2018-Jul-23 02:00N 40°43' W 074°01'0 0.1
2018-Jul-23 01:31N 40°43' W 074°01'0 0.1
2018-Jul-23 01:00N 40°43' W 074°01'0 0.0
2018-Jul-23 00:30N 40°43' W 074°01'0 0.6
2018-Jul-23 00:01N 40°43' W 074°01'0 0.6
2018-Jul-22 23:31N 40°43' W 074°01'0 0.1
2018-Jul-22 23:01N 40°43' W 074°01'0 0.0
2018-Jul-22 22:30N 40°43' W 074°01'0 0.0
2018-Jul-22 22:01N 40°43' W 074°01'0 0.1
2018-Jul-22 21:29N 40°43' W 074°01'0 0.1
2018-Jul-22 21:00N 40°43' W 074°01'0 0.0
2018-Jul-22 20:30N 40°43' W 074°01'0 0.0
2018-Jul-22 20:00N 40°43' W 074°01'0 0.0
2018-Jul-22 19:31N 40°43' W 074°01'0 0.0
2018-Jul-22 19:00N 40°43' W 074°01'0 0.0
2018-Jul-22 18:29N 40°43' W 074°01'0 0.0
2018-Jul-22 18:00N 40°43' W 074°01'0 0.0
2018-Jul-22 17:30N 40°43' W 074°01'0 0.2
2018-Jul-22 17:00N 40°43' W 074°01'0 0.2
2018-Jul-22 16:30N 40°43' W 074°01'0 0.0
2018-Jul-22 16:00N 40°43' W 074°01'0 0.0
2018-Jul-22 14:59N 40°43' W 074°01'0 0.0
2018-Jul-22 14:28N 40°43' W 074°01'0 0.1
2018-Jul-22 14:00N 40°43' W 074°01'0 0.1
2018-Jul-22 13:30N 40°43' W 074°01'0 0.0
2018-Jul-22 13:00N 40°43' W 074°01'0 0.0
2018-Jul-22 12:30N 40°43' W 074°01'0 0.0
2018-Jul-22 12:00N 40°43' W 074°01'0 0.0
2018-Jul-22 11:30N 40°43' W 074°01'0 0.0
2018-Jul-22 11:00N 40°43' W 074°01'0 0.0
2018-Jul-22 10:31N 40°43' W 074°01'0 0.0
2018-Jul-22 10:00N 40°43' W 074°01'0 0.0
2018-Jul-22 09:30N 40°43' W 074°01'0 0.0
2018-Jul-22 09:01N 40°43' W 074°01'0 0.0
2018-Jul-22 08:31N 40°43' W 074°01'0 0.1
2018-Jul-22 08:00N 40°43' W 074°01'0 0.1
2018-Jul-22 07:31N 40°43' W 074°01'0 0.0
2018-Jul-22 07:00N 40°43' W 074°01'0 0.0
2018-Jul-22 06:31N 40°43' W 074°01'0 0.1
2018-Jul-22 06:01N 40°43' W 074°01'0 0.1
2018-Jul-22 05:30N 40°43' W 074°01'0 0.0
2018-Jul-22 05:00N 40°43' W 074°01'0 0.2
2018-Jul-22 04:31N 40°43' W 074°01'0 0.2
2018-Jul-22 04:00N 40°43' W 074°01'0 0.2
2018-Jul-22 03:31N 40°43' W 074°01'0 0.2
2018-Jul-22 03:01N 40°43' W 074°01'0 0.0
2018-Jul-22 02:31N 40°43' W 074°01'0 0.1
2018-Jul-22 02:00N 40°43' W 074°01'0 0.1
2018-Jul-22 01:31N 40°43' W 074°01'0 0.0
2018-Jul-22 01:01N 40°43' W 074°01'0 0.0
2018-Jul-22 00:31N 40°43' W 074°01'0 0.5
2018-Jul-22 00:01N 40°43' W 074°01'0 0.5
2018-Jul-21 23:31N 40°43' W 074°01'0 0.1
2018-Jul-21 23:00N 40°43' W 074°01'0 0.2
2018-Jul-21 22:31N 40°43' W 074°01'0 0.2
2018-Jul-21 22:01N 40°43' W 074°01'0 0.1
2018-Jul-21 21:31N 40°43' W 074°01'0 0.1
2018-Jul-21 21:01N 40°43' W 074°01'0 0.0
2018-Jul-21 20:31N 40°43' W 074°01'0 0.0
2018-Jul-21 20:00N 40°43' W 074°01'0 0.0
2018-Jul-21 19:31N 40°43' W 074°01'0 0.1
2018-Jul-21 19:01N 40°43' W 074°01'0 0.1
2018-Jul-21 18:30N 40°43' W 074°01'0 0.0
2018-Jul-21 18:01N 40°43' W 074°01'0 0.0
2018-Jul-21 17:30N 40°43' W 074°01'0 0.0
2018-Jul-21 17:00N 40°43' W 074°01'0 0.0
2018-Jul-21 16:31N 40°43' W 074°01'0 0.0
2018-Jul-21 16:00N 40°43' W 074°01'0 0.0
2018-Jul-21 15:31N 40°43' W 074°01'  
Track history (hours):
 
Tides and Currents Weather Stations Pressure Air Temp Water Temp Dewpoint Dewpoint Depression Visibility Wind Speed Wind Dir Waves Ship Positions

Plan A

Last reported at 2018-Jul-31 15:09 UTC. Time now 2018-Aug-14 07:03 UTC.
Position N 41°57' W 069°57'.
Warning: this ship's position is 13 days out of date.

Length 40 m; draft 2.1 m.

Type: Pleasure craft. MMSI: 339464000.

Date/timePositionNaut miles runAvg speedWind from/ knotsBaromVisibWave heightAir tempDewpointWater temp
2018-Jul-31 15:09N 41°57' W 069°57'415.0
2018-Jul-31 14:53N 42°01' W 070°00'614.9
2018-Jul-31 14:30N 42°05' W 070°06'6 7.5
2018-Jul-31 13:40N 42°01' W 070°13'212.3
2018-Jul-31 13:30N 42°01' W 070°10'11 0.7
2018-Jul-30 22:15N 42°09' W 070°20'1 2.2
2018-Jul-30 21:56N 42°09' W 070°20'1 2.3
2018-Jul-30 21:29N 42°10' W 070°21'613.4
2018-Jul-30 21:00N 42°14' W 070°28'713.9
2018-Jul-30 20:31N 42°17' W 070°36'714.3
2018-Jul-30 20:00N 42°21' W 070°45'713.5
2018-Jul-30 19:30N 42°23' W 070°53'611.4
2018-Jul-30 19:00N 42°20' W 071°00'2 4.6
2018-Jul-30 18:30N 42°22' W 071°03'0 0.0
2018-Jul-30 17:58N 42°22' W 071°03'0 0.0
2018-Jul-30 17:31N 42°22' W 071°03'0 0.0
2018-Jul-30 16:57N 42°22' W 071°03'0 0.0
2018-Jul-30 16:27N 42°22' W 071°03'0 0.0
2018-Jul-30 15:58N 42°22' W 071°03'0 0.0
2018-Jul-30 15:27N 42°22' W 071°03'0 0.0
2018-Jul-30 14:58N 42°22' W 071°03'0 0.0
2018-Jul-30 14:30N 42°22' W 071°03'0 0.0
2018-Jul-30 13:58N 42°22' W 071°03'0 0.0
2018-Jul-30 13:28N 42°22' W 071°03'0 0.0
2018-Jul-30 12:58N 42°22' W 071°03'0 0.0
2018-Jul-30 12:28N 42°22' W 071°03'0 0.0
2018-Jul-30 12:00N 42°22' W 071°03'0 0.0
2018-Jul-30 11:31N 42°22' W 071°03'0 0.0
2018-Jul-30 10:58N 42°22' W 071°03'0 0.0
2018-Jul-30 10:27N 42°22' W 071°03'0 0.0
2018-Jul-30 10:00N 42°22' W 071°03'0 0.0
2018-Jul-30 09:30N 42°22' W 071°03'0 0.0
2018-Jul-30 09:00N 42°22' W 071°03'0 0.0
2018-Jul-30 08:28N 42°22' W 071°03'0 0.0
2018-Jul-30 08:00N 42°22' W 071°03'0 0.0
2018-Jul-30 07:30N 42°22' W 071°03'0 0.0
2018-Jul-30 06:58N 42°22' W 071°03'0 0.0
2018-Jul-30 06:30N 42°22' W 071°03'0 0.0
2018-Jul-30 06:00N 42°22' W 071°03'0 0.0
2018-Jul-30 05:30N 42°22' W 071°03'0 0.0
2018-Jul-30 05:00N 42°22' W 071°03'0 0.0
2018-Jul-30 04:28N 42°22' W 071°03'0 0.0
2018-Jul-30 03:57N 42°22' W 071°03'0 0.0
2018-Jul-30 03:30N 42°22' W 071°03'0 0.0
2018-Jul-30 02:58N 42°22' W 071°03'0 0.0
2018-Jul-30 02:30N 42°22' W 071°03'0 0.0
2018-Jul-30 02:00N 42°22' W 071°03'0 0.0
2018-Jul-30 01:28N 42°22' W 071°03'0 0.0
2018-Jul-30 00:57N 42°22' W 071°03'0 0.0
2018-Jul-30 00:31N 42°22' W 071°03'0 0.0
2018-Jul-29 23:58N 42°22' W 071°03'0 0.0
2018-Jul-29 23:28N 42°22' W 071°03'0 0.0
2018-Jul-29 22:57N 42°22' W 071°03'0 0.0
2018-Jul-29 22:27N 42°22' W 071°03'0 0.0
2018-Jul-29 21:58N 42°22' W 071°03'0 0.0
2018-Jul-29 21:28N 42°22' W 071°03'2 4.7
2018-Jul-29 21:00N 42°20' W 071°00'4 7.2
2018-Jul-29 20:30N 42°21' W 070°56'611.5
2018-Jul-29 20:00N 42°23' W 070°48'713.5
2018-Jul-29 19:30N 42°20' W 070°40'713.6
2018-Jul-29 19:00N 42°16' W 070°33'96 1.9
2018-Jul-27 17:34N 41°14' W 072°12'214.9
2018-Jul-27 17:27N 41°14' W 072°15'511.7
2018-Jul-27 17:00N 41°17' W 072°21'4 7.6
2018-Jul-27 16:27N 41°21' W 072°23'2 1.4
2018-Jul-27 15:10N 41°22' W 072°22'1 7.7
2018-Jul-27 14:59N 41°21' W 072°23'0 0.0
2018-Jul-27 02:34N 41°21' W 072°23'2 6.2
2018-Jul-27 02:18N 41°20' W 072°21'2 5.8
2018-Jul-27 02:00N 41°18' W 072°21'2 4.3
2018-Jul-27 01:30N 41°16' W 072°20'5 9.0
2018-Jul-27 01:00N 41°12' W 072°21'713.8
2018-Jul-27 00:29N 41°09' W 072°30'714.6
2018-Jul-26 23:59N 41°08' W 072°39'6313.7
2018-Jul-26 19:23N 40°46' W 073°57'3 8.7
2018-Jul-26 19:01N 40°43' W 073°59'2 3.6
2018-Jul-26 18:30N 40°43' W 074°01'0 0.1
2018-Jul-26 18:01N 40°43' W 074°01'0 0.0
2018-Jul-26 17:31N 40°43' W 074°01'0 0.0
2018-Jul-26 17:01N 40°43' W 074°01'0 0.0
2018-Jul-26 16:30N 40°43' W 074°01'0 0.1
2018-Jul-26 16:01N 40°43' W 074°01'0 0.1
2018-Jul-26 15:31N 40°43' W 074°01'0 0.0
2018-Jul-26 15:00N 40°43' W 074°01'0 0.0
2018-Jul-26 14:31N 40°43' W 074°01'0 0.0
2018-Jul-26 14:01N 40°43' W 074°01'0 0.0
2018-Jul-26 13:30N 40°43' W 074°01'0 0.0
2018-Jul-26 13:01N 40°43' W 074°01'0 0.0
2018-Jul-26 12:31N 40°43' W 074°01'0 0.0
2018-Jul-26 12:01N 40°43' W 074°01'0 0.0
2018-Jul-26 11:31N 40°43' W 074°01'0 0.0
2018-Jul-26 11:00N 40°43' W 074°01'0 0.0
2018-Jul-26 10:31N 40°43' W 074°01'0 0.0
2018-Jul-26 10:00N 40°43' W 074°01'0 0.0
2018-Jul-26 09:31N 40°43' W 074°01'0 0.1
2018-Jul-26 09:00N 40°43' W 074°01'0 0.1
2018-Jul-26 08:31N 40°43' W 074°01'0 0.0
2018-Jul-26 08:00N 40°43' W 074°01'0 0.0
2018-Jul-26 07:31N 40°43' W 074°01'0 0.1
2018-Jul-26 07:01N 40°43' W 074°01'0 0.1
2018-Jul-26 06:30N 40°43' W 074°01'0 0.0
2018-Jul-26 06:00N 40°43' W 074°01'0 0.0
2018-Jul-26 05:31N 40°43' W 074°01'0 0.0
2018-Jul-26 05:01N 40°43' W 074°01'0 0.0
2018-Jul-26 04:31N 40°43' W 074°01'0 0.0
2018-Jul-26 04:01N 40°43' W 074°01'0 0.0
2018-Jul-26 03:31N 40°43' W 074°01'0 0.0
2018-Jul-26 03:01N 40°43' W 074°01'0 0.0
2018-Jul-26 02:31N 40°43' W 074°01'0 0.0
2018-Jul-26 02:01N 40°43' W 074°01'0 0.0
2018-Jul-26 01:31N 40°43' W 074°01'0 0.0
2018-Jul-26 01:01N 40°43' W 074°01'0 0.0
2018-Jul-26 00:31N 40°43' W 074°01'0 0.0
2018-Jul-26 00:01N 40°43' W 074°01'0 0.0
2018-Jul-25 23:30N 40°43' W 074°01'0 0.0
2018-Jul-25 23:01N 40°43' W 074°01'0 0.0
2018-Jul-25 22:30N 40°43' W 074°01'0 0.0
2018-Jul-25 22:01N 40°43' W 074°01'0 0.1
2018-Jul-25 21:31N 40°43' W 074°01'0 0.1
2018-Jul-25 21:01N 40°43' W 074°01'0 0.0
2018-Jul-25 20:31N 40°43' W 074°01'0 0.0
2018-Jul-25 20:01N 40°43' W 074°01'0 0.0
2018-Jul-25 19:31N 40°43' W 074°01'0 0.0
2018-Jul-25 19:00N 40°43' W 074°01'0 0.0
2018-Jul-25 18:30N 40°43' W 074°01'0 0.0
2018-Jul-25 18:00N 40°43' W 074°01'0 0.0
2018-Jul-25 17:31N 40°43' W 074°01'0 0.0
2018-Jul-25 17:01N 40°43' W 074°01'0 0.0
2018-Jul-25 16:31N 40°43' W 074°01'0 0.0
2018-Jul-25 16:01N 40°43' W 074°01'0 0.0
2018-Jul-25 15:31N 40°43' W 074°01'0 0.0
2018-Jul-25 15:01N 40°43' W 074°01'0 0.0
2018-Jul-25 14:30N 40°43' W 074°01'0 0.0
2018-Jul-25 14:01N 40°43' W 074°01'0 0.0
2018-Jul-25 13:31N 40°43' W 074°01'0 0.0
2018-Jul-25 13:01N 40°43' W 074°01'0 0.0
2018-Jul-25 12:31N 40°43' W 074°01'0 0.0
2018-Jul-25 12:01N 40°43' W 074°01'0 0.0
2018-Jul-25 11:30N 40°43' W 074°01'0 0.0
2018-Jul-25 11:01N 40°43' W 074°01'0 0.0
2018-Jul-25 10:31N 40°43' W 074°01'0 0.0
2018-Jul-25 10:00N 40°43' W 074°01'0 0.0
2018-Jul-25 09:30N 40°43' W 074°01'0 0.0
2018-Jul-25 09:01N 40°43' W 074°01'0 0.0
2018-Jul-25 08:31N 40°43' W 074°01'0 0.0
2018-Jul-25 08:01N 40°43' W 074°01'0 0.0
2018-Jul-25 07:31N 40°43' W 074°01'0 0.0
2018-Jul-25 07:01N 40°43' W 074°01'0 0.1
2018-Jul-25 06:31N 40°43' W 074°01'0 0.1
2018-Jul-25 06:00N 40°43' W 074°01'0 0.1
2018-Jul-25 05:31N 40°43' W 074°01'0 0.0
2018-Jul-25 05:01N 40°43' W 074°01'0 0.0
2018-Jul-25 04:30N 40°43' W 074°01'0 0.0
2018-Jul-25 04:01N 40°43' W 074°01'0 0.0
2018-Jul-25 03:31N 40°43' W 074°01'0 0.0
2018-Jul-25 03:01N 40°43' W 074°01'0 0.0
2018-Jul-25 02:31N 40°43' W 074°01'0 0.0
2018-Jul-25 01:58N 40°43' W 074°01'0 0.0
2018-Jul-25 01:31N 40°43' W 074°01'0 0.0
2018-Jul-25 01:01N 40°43' W 074°01'0 0.0
2018-Jul-25 00:31N 40°43' W 074°01'0 0.0
2018-Jul-25 00:01N 40°43' W 074°01'0 0.0
2018-Jul-24 23:31N 40°43' W 074°01'0 0.0
2018-Jul-24 23:01N 40°43' W 074°01'0 0.0
2018-Jul-24 22:30N 40°43' W 074°01'0 0.0
2018-Jul-24 22:00N 40°43' W 074°01'0 0.2
2018-Jul-24 21:30N 40°43' W 074°01'0 0.2
2018-Jul-24 21:01N 40°43' W 074°01'0 0.0
2018-Jul-24 20:30N 40°43' W 074°01'0 0.0
2018-Jul-24 20:00N 40°43' W 074°01'0 0.0
2018-Jul-24 19:30N 40°43' W 074°01'0 0.0
2018-Jul-24 19:00N 40°43' W 074°01'0 0.0
2018-Jul-24 18:31N 40°43' W 074°01'0 0.0
2018-Jul-24 18:01N 40°43' W 074°01'0 0.0
2018-Jul-24 17:30N 40°43' W 074°01'0 0.0
2018-Jul-24 17:00N 40°43' W 074°01'0 0.0
2018-Jul-24 16:31N 40°43' W 074°01'0 0.0
2018-Jul-24 16:01N 40°43' W 074°01'0 0.0
2018-Jul-24 15:31N 40°43' W 074°01'0 0.0
2018-Jul-24 14:31N 40°43' W 074°01'0 0.0
2018-Jul-24 14:00N 40°43' W 074°01'0 0.0
2018-Jul-24 13:31N 40°43' W 074°01'0 0.0
2018-Jul-24 13:01N 40°43' W 074°01'0 0.0
2018-Jul-24 12:29N 40°43' W 074°01'0 0.0
2018-Jul-24 12:00N 40°43' W 074°01'0 0.0
2018-Jul-24 11:31N 40°43' W 074°01'0 0.0
2018-Jul-24 11:00N 40°43' W 074°01'0 0.0
2018-Jul-24 10:31N 40°43' W 074°01'0 0.0
2018-Jul-24 10:00N 40°43' W 074°01'0 0.0
2018-Jul-24 09:31N 40°43' W 074°01'0 0.1
2018-Jul-24 09:01N 40°43' W 074°01'0 0.1
2018-Jul-24 08:31N 40°43' W 074°01'0 0.0
2018-Jul-24 08:00N 40°43' W 074°01'0 0.0
2018-Jul-24 07:31N 40°43' W 074°01'0 0.0
2018-Jul-24 07:01N 40°43' W 074°01'0 0.0
2018-Jul-24 06:30N 40°43' W 074°01'0 0.0
2018-Jul-24 06:01N 40°43' W 074°01'0 0.0
2018-Jul-24 05:31N 40°43' W 074°01'0 0.0
2018-Jul-24 05:00N 40°43' W 074°01'0 0.0
2018-Jul-24 04:30N 40°43' W 074°01'0 0.0
2018-Jul-24 04:00N 40°43' W 074°01'0 0.1
2018-Jul-24 03:30N 40°43' W 074°01'0 0.1
2018-Jul-24 03:01N 40°43' W 074°01'0 0.0
2018-Jul-24 02:31N 40°43' W 074°01'0 0.0
2018-Jul-24 02:01N 40°43' W 074°01'0 0.0
2018-Jul-24 01:31N 40°43' W 074°01'0 0.0
2018-Jul-24 01:01N 40°43' W 074°01'0 0.0
2018-Jul-24 00:30N 40°43' W 074°01'0 0.0
2018-Jul-24 00:00N 40°43' W 074°01'0 0.0
2018-Jul-23 23:30N 40°43' W 074°01'0 0.0
2018-Jul-23 23:00N 40°43' W 074°01'0 0.0
2018-Jul-23 22:31N 40°43' W 074°01'0 0.0
2018-Jul-23 22:00N 40°43' W 074°01'0 0.0
2018-Jul-23 21:31N 40°43' W 074°01'0 0.0
2018-Jul-23 21:01N 40°43' W 074°01'0 0.0
2018-Jul-23 20:31N 40°43' W 074°01'0 0.0
2018-Jul-23 19:30N 40°43' W 074°01'0 0.0
2018-Jul-23 19:01N 40°43' W 074°01'0 0.0
2018-Jul-23 18:30N 40°43' W 074°01'0 0.0
2018-Jul-23 18:00N 40°43' W 074°01'0 0.0
2018-Jul-23 17:30N 40°43' W 074°01'0 0.0
2018-Jul-23 17:00N 40°43' W 074°01'0 0.0
2018-Jul-23 16:31N 40°43' W 074°01'0 0.1
2018-Jul-23 16:01N 40°43' W 074°01'0 0.1
2018-Jul-23 15:31N 40°43' W 074°01'0 0.0
2018-Jul-23 15:01N 40°43' W 074°01'0 0.0
2018-Jul-23 14:31N 40°43' W 074°01'0 0.0
2018-Jul-23 14:01N 40°43' W 074°01'0 0.0
2018-Jul-23 13:31N 40°43' W 074°01'0 0.0
2018-Jul-23 13:00N 40°43' W 074°01'0 0.0
2018-Jul-23 12:31N 40°43' W 074°01'0 0.0
2018-Jul-23 12:01N 40°43' W 074°01'0 0.0
2018-Jul-23 11:31N 40°43' W 074°01'0 0.0
2018-Jul-23 11:01N 40°43' W 074°01'0 0.0
2018-Jul-23 10:31N 40°43' W 074°01'0 0.0
2018-Jul-23 10:01N 40°43' W 074°01'0 0.3
2018-Jul-23 09:31N 40°43' W 074°01'0 0.3
2018-Jul-23 09:01N 40°43' W 074°01'0 0.0
2018-Jul-23 08:31N 40°43' W 074°01'0 0.0
2018-Jul-23 08:01N 40°43' W 074°01'0 0.1
2018-Jul-23 07:31N 40°43' W 074°01'0 0.0
2018-Jul-23 07:00N 40°43' W 074°01'0 0.0
2018-Jul-23 06:31N 40°43' W 074°01'0 0.0
2018-Jul-23 06:01N 40°43' W 074°01'0 0.0
2018-Jul-23 05:31N 40°43' W 074°01'0 0.0
2018-Jul-23 05:01N 40°43' W 074°01'0 0.0
2018-Jul-23 04:30N 40°43' W 074°01'0 0.1
2018-Jul-23 04:00N 40°43' W 074°01'0 0.0
2018-Jul-23 03:31N 40°43' W 074°01'0 0.1
2018-Jul-23 03:01N 40°43' W 074°01'0 0.0
2018-Jul-23 02:31N 40°43' W 074°01'0 0.0
2018-Jul-23 02:00N 40°43' W 074°01'0 0.1
2018-Jul-23 01:31N 40°43' W 074°01'0 0.1
2018-Jul-23 01:00N 40°43' W 074°01'0 0.0
2018-Jul-23 00:30N 40°43' W 074°01'0 0.6
2018-Jul-23 00:01N 40°43' W 074°01'0 0.6
2018-Jul-22 23:31N 40°43' W 074°01'0 0.1
2018-Jul-22 23:01N 40°43' W 074°01'0 0.0
2018-Jul-22 22:30N 40°43' W 074°01'0 0.0
2018-Jul-22 22:01N 40°43' W 074°01'0 0.1
2018-Jul-22 21:29N 40°43' W 074°01'0 0.1
2018-Jul-22 21:00N 40°43' W 074°01'0 0.0
2018-Jul-22 20:30N 40°43' W 074°01'0 0.0
2018-Jul-22 20:00N 40°43' W 074°01'0 0.0
2018-Jul-22 19:31N 40°43' W 074°01'0 0.0
2018-Jul-22 19:00N 40°43' W 074°01'0 0.0
2018-Jul-22 18:29N 40°43' W 074°01'0 0.0
2018-Jul-22 18:00N 40°43' W 074°01'0 0.0
2018-Jul-22 17:30N 40°43' W 074°01'0 0.2
2018-Jul-22 17:00N 40°43' W 074°01'0 0.2
2018-Jul-22 16:30N 40°43' W 074°01'0 0.0
2018-Jul-22 16:00N 40°43' W 074°01'0 0.0
2018-Jul-22 14:59N 40°43' W 074°01'0 0.0
2018-Jul-22 14:28N 40°43' W 074°01'0 0.1
2018-Jul-22 14:00N 40°43' W 074°01'0 0.1
2018-Jul-22 13:30N 40°43' W 074°01'0 0.0
2018-Jul-22 13:00N 40°43' W 074°01'0 0.0
2018-Jul-22 12:30N 40°43' W 074°01'0 0.0
2018-Jul-22 12:00N 40°43' W 074°01'0 0.0
2018-Jul-22 11:30N 40°43' W 074°01'0 0.0
2018-Jul-22 11:00N 40°43' W 074°01'0 0.0
2018-Jul-22 10:31N 40°43' W 074°01'0 0.0
2018-Jul-22 10:00N 40°43' W 074°01'0 0.0
2018-Jul-22 09:30N 40°43' W 074°01'0 0.0
2018-Jul-22 09:01N 40°43' W 074°01'0 0.0
2018-Jul-22 08:31N 40°43' W 074°01'0 0.1
2018-Jul-22 08:00N 40°43' W 074°01'0 0.1
2018-Jul-22 07:31N 40°43' W 074°01'0 0.0
2018-Jul-22 07:00N 40°43' W 074°01'0 0.0
2018-Jul-22 06:31N 40°43' W 074°01'0 0.1
2018-Jul-22 06:01N 40°43' W 074°01'0 0.1
2018-Jul-22 05:30N 40°43' W 074°01'0 0.0
2018-Jul-22 05:00N 40°43' W 074°01'0 0.2
2018-Jul-22 04:31N 40°43' W 074°01'0 0.2
2018-Jul-22 04:00N 40°43' W 074°01'0 0.2
2018-Jul-22 03:31N 40°43' W 074°01'0 0.2
2018-Jul-22 03:01N 40°43' W 074°01'0 0.0
2018-Jul-22 02:31N 40°43' W 074°01'0 0.1
2018-Jul-22 02:00N 40°43' W 074°01'0 0.1
2018-Jul-22 01:31N 40°43' W 074°01'0 0.0
2018-Jul-22 01:01N 40°43' W 074°01'0 0.0
2018-Jul-22 00:31N 40°43' W 074°01'0 0.5
2018-Jul-22 00:01N 40°43' W 074°01'0 0.5
2018-Jul-21 23:31N 40°43' W 074°01'0 0.1
2018-Jul-21 23:00N 40°43' W 074°01'0 0.2
2018-Jul-21 22:31N 40°43' W 074°01'0 0.2
2018-Jul-21 22:01N 40°43' W 074°01'0 0.1
2018-Jul-21 21:31N 40°43' W 074°01'0 0.1
2018-Jul-21 21:01N 40°43' W 074°01'0 0.0
2018-Jul-21 20:31N 40°43' W 074°01'0 0.0
2018-Jul-21 20:00N 40°43' W 074°01'0 0.0
2018-Jul-21 19:31N 40°43' W 074°01'0 0.1
2018-Jul-21 19:01N 40°43' W 074°01'0 0.1
2018-Jul-21 18:30N 40°43' W 074°01'0 0.0
2018-Jul-21 18:01N 40°43' W 074°01'0 0.0
2018-Jul-21 17:30N 40°43' W 074°01'0 0.0
2018-Jul-21 17:00N 40°43' W 074°01'0 0.0
2018-Jul-21 16:31N 40°43' W 074°01'0 0.0
2018-Jul-21 16:00N 40°43' W 074°01'0 0.0
2018-Jul-21 15:31N 40°43' W 074°01'  

Dump ship's entire track history